sensor_id;sensor_type;location;lat;lon;timestamp;P1;durP1;ratioP1;P2;durP2;ratioP2
24401;SDS011;12539;48.808;11.292;2022-12-18T00:01:52;82.82;;;30.17;;
24401;SDS011;12539;48.808;11.292;2022-12-18T00:04:22;90.88;;;31.48;;
24401;SDS011;12539;48.808;11.292;2022-12-18T00:06:49;90.50;;;33.20;;
24401;SDS011;12539;48.808;11.292;2022-12-18T00:09:15;104.65;;;34.50;;
24401;SDS011;12539;48.808;11.292;2022-12-18T00:11:41;124.45;;;41.17;;
24401;SDS011;12539;48.808;11.292;2022-12-18T00:14:08;418.52;;;72.78;;
24401;SDS011;12539;48.808;11.292;2022-12-18T00:16:35;1999.90;;;340.85;;
24401;SDS011;12539;48.808;11.292;2022-12-18T00:19:02;1999.90;;;478.17;;
24401;SDS011;12539;48.808;11.292;2022-12-18T00:21:31;1999.90;;;462.50;;
24401;SDS011;12539;48.808;11.292;2022-12-18T00:23:58;503.50;;;95.20;;
24401;SDS011;12539;48.808;11.292;2022-12-18T00:26:26;145.90;;;43.13;;
24401;SDS011;12539;48.808;11.292;2022-12-18T00:28:53;121.28;;;39.33;;
24401;SDS011;12539;48.808;11.292;2022-12-18T00:31:21;116.25;;;39.08;;
24401;SDS011;12539;48.808;11.292;2022-12-18T00:33:48;126.53;;;42.17;;
24401;SDS011;12539;48.808;11.292;2022-12-18T00:36:19;107.53;;;34.15;;
24401;SDS011;12539;48.808;11.292;2022-12-18T00:38:46;114.30;;;41.70;;
24401;SDS011;12539;48.808;11.292;2022-12-18T00:41:12;110.25;;;35.85;;
24401;SDS011;12539;48.808;11.292;2022-12-18T00:43:59;81.15;;;29.38;;
24401;SDS011;12539;48.808;11.292;2022-12-18T00:46:26;92.30;;;34.50;;
24401;SDS011;12539;48.808;11.292;2022-12-18T00:48:52;135.18;;;40.63;;
24401;SDS011;12539;48.808;11.292;2022-12-18T00:51:21;107.18;;;38.53;;
24401;SDS011;12539;48.808;11.292;2022-12-18T00:53:49;103.85;;;36.38;;
24401;SDS011;12539;48.808;11.292;2022-12-18T00:56:15;121.90;;;36.30;;
24401;SDS011;12539;48.808;11.292;2022-12-18T00:58:41;82.05;;;30.38;;
24401;SDS011;12539;48.808;11.292;2022-12-18T01:01:06;69.47;;;28.40;;
24401;SDS011;12539;48.808;11.292;2022-12-18T01:03:33;91.68;;;33.00;;
24401;SDS011;12539;48.808;11.292;2022-12-18T01:05:59;117.57;;;41.30;;
24401;SDS011;12539;48.808;11.292;2022-12-18T01:08:24;97.82;;;36.40;;
24401;SDS011;12539;48.808;11.292;2022-12-18T01:10:50;75.18;;;30.95;;
24401;SDS011;12539;48.808;11.292;2022-12-18T01:13:16;101.80;;;35.70;;
24401;SDS011;12539;48.808;11.292;2022-12-18T01:15:47;90.05;;;32.33;;
24401;SDS011;12539;48.808;11.292;2022-12-18T01:18:14;132.75;;;40.88;;
24401;SDS011;12539;48.808;11.292;2022-12-18T01:20:40;108.15;;;37.50;;
24401;SDS011;12539;48.808;11.292;2022-12-18T01:23:05;134.85;;;37.85;;
24401;SDS011;12539;48.808;11.292;2022-12-18T01:25:31;1380.47;;;184.65;;
24401;SDS011;12539;48.808;11.292;2022-12-18T01:27:57;1999.90;;;345.23;;
24401;SDS011;12539;48.808;11.292;2022-12-18T01:30:22;1579.93;;;218.73;;
24401;SDS011;12539;48.808;11.292;2022-12-18T01:32:48;425.33;;;90.80;;
24401;SDS011;12539;48.808;11.292;2022-12-18T01:35:14;170.32;;;50.30;;
24401;SDS011;12539;48.808;11.292;2022-12-18T01:37:40;203.95;;;57.40;;
24401;SDS011;12539;48.808;11.292;2022-12-18T01:40:05;149.68;;;44.63;;
24401;SDS011;12539;48.808;11.292;2022-12-18T01:42:32;108.53;;;37.42;;
24401;SDS011;12539;48.808;11.292;2022-12-18T01:47:41;86.38;;;33.80;;
24401;SDS011;12539;48.808;11.292;2022-12-18T01:50:52;106.22;;;35.75;;
24401;SDS011;12539;48.808;11.292;2022-12-18T01:53:06;144.70;;;46.90;;
24401;SDS011;12539;48.808;11.292;2022-12-18T01:55:35;74.60;;;29.17;;
24401;SDS011;12539;48.808;11.292;2022-12-18T01:58:05;75.50;;;30.30;;
24401;SDS011;12539;48.808;11.292;2022-12-18T02:00:31;104.57;;;32.90;;
24401;SDS011;12539;48.808;11.292;2022-12-18T02:02:57;89.05;;;31.60;;
24401;SDS011;12539;48.808;11.292;2022-12-18T02:05:29;92.10;;;30.60;;
24401;SDS011;12539;48.808;11.292;2022-12-18T02:16:50;74.10;;;27.45;;
24401;SDS011;12539;48.808;11.292;2022-12-18T02:22:00;82.57;;;31.05;;
24401;SDS011;12539;48.808;11.292;2022-12-18T02:24:35;96.78;;;34.65;;
24401;SDS011;12539;48.808;11.292;2022-12-18T02:27:16;82.82;;;30.05;;
24401;SDS011;12539;48.808;11.292;2022-12-18T02:29:53;97.68;;;35.55;;
24401;SDS011;12539;48.808;11.292;2022-12-18T02:32:30;83.00;;;31.98;;
24401;SDS011;12539;48.808;11.292;2022-12-18T02:35:03;104.70;;;36.15;;
24401;SDS011;12539;48.808;11.292;2022-12-18T02:37:31;125.93;;;43.38;;
24401;SDS011;12539;48.808;11.292;2022-12-18T02:39:59;101.10;;;38.10;;
24401;SDS011;12539;48.808;11.292;2022-12-18T02:42:26;136.80;;;48.55;;
24401;SDS011;12539;48.808;11.292;2022-12-18T02:44:56;165.90;;;54.45;;
24401;SDS011;12539;48.808;11.292;2022-12-18T02:47:22;957.45;;;136.90;;
24401;SDS011;12539;48.808;11.292;2022-12-18T02:50:02;839.73;;;121.07;;
24401;SDS011;12539;48.808;11.292;2022-12-18T02:52:38;161.02;;;51.67;;
24401;SDS011;12539;48.808;11.292;2022-12-18T03:00:41;99.35;;;37.85;;
24401;SDS011;12539;48.808;11.292;2022-12-18T03:03:24;79.85;;;31.33;;
24401;SDS011;12539;48.808;11.292;2022-12-18T03:06:00;95.68;;;33.35;;
24401;SDS011;12539;48.808;11.292;2022-12-18T03:08:41;67.93;;;25.85;;
24401;SDS011;12539;48.808;11.292;2022-12-18T03:11:10;77.82;;;29.35;;
24401;SDS011;12539;48.808;11.292;2022-12-18T03:13:45;72.65;;;30.05;;
24401;SDS011;12539;48.808;11.292;2022-12-18T03:16:22;91.90;;;33.22;;
24401;SDS011;12539;48.808;11.292;2022-12-18T03:19:10;86.25;;;32.15;;
24401;SDS011;12539;48.808;11.292;2022-12-18T03:21:43;77.30;;;30.13;;
24401;SDS011;12539;48.808;11.292;2022-12-18T03:24:18;82.55;;;28.95;;
24401;SDS011;12539;48.808;11.292;2022-12-18T03:26:47;65.43;;;25.63;;
24401;SDS011;12539;48.808;11.292;2022-12-18T03:29:19;74.13;;;27.58;;
24401;SDS011;12539;48.808;11.292;2022-12-18T03:31:51;84.75;;;27.52;;
24401;SDS011;12539;48.808;11.292;2022-12-18T03:34:26;72.93;;;28.80;;
24401;SDS011;12539;48.808;11.292;2022-12-18T03:36:58;68.63;;;25.70;;
24401;SDS011;12539;48.808;11.292;2022-12-18T03:39:27;71.50;;;25.15;;
24401;SDS011;12539;48.808;11.292;2022-12-18T03:47:22;53.55;;;21.65;;
24401;SDS011;12539;48.808;11.292;2022-12-18T03:50:16;66.88;;;25.70;;
24401;SDS011;12539;48.808;11.292;2022-12-18T03:55:20;58.13;;;22.65;;
24401;SDS011;12539;48.808;11.292;2022-12-18T03:57:47;49.33;;;20.38;;
24401;SDS011;12539;48.808;11.292;2022-12-18T04:00:15;71.15;;;25.50;;
24401;SDS011;12539;48.808;11.292;2022-12-18T04:02:43;60.67;;;24.60;;
24401;SDS011;12539;48.808;11.292;2022-12-18T04:05:13;60.30;;;25.42;;
24401;SDS011;12539;48.808;11.292;2022-12-18T04:10:11;52.38;;;22.27;;
24401;SDS011;12539;48.808;11.292;2022-12-18T04:12:37;67.93;;;26.52;;
24401;SDS011;12539;48.808;11.292;2022-12-18T04:15:03;62.33;;;25.48;;
24401;SDS011;12539;48.808;11.292;2022-12-18T04:17:30;59.17;;;24.15;;
24401;SDS011;12539;48.808;11.292;2022-12-18T04:19:55;66.28;;;24.00;;
24401;SDS011;12539;48.808;11.292;2022-12-18T04:22:21;139.98;;;32.67;;
24401;SDS011;12539;48.808;11.292;2022-12-18T04:24:46;585.03;;;76.28;;
24401;SDS011;12539;48.808;11.292;2022-12-18T04:27:12;325.20;;;52.75;;
24401;SDS011;12539;48.808;11.292;2022-12-18T04:29:39;92.22;;;31.48;;
24401;SDS011;12539;48.808;11.292;2022-12-18T04:32:04;69.13;;;26.52;;
24401;SDS011;12539;48.808;11.292;2022-12-18T04:34:30;75.35;;;26.75;;
24401;SDS011;12539;48.808;11.292;2022-12-18T04:36:56;63.22;;;23.90;;
24401;SDS011;12539;48.808;11.292;2022-12-18T04:39:21;56.97;;;22.20;;
24401;SDS011;12539;48.808;11.292;2022-12-18T04:41:47;61.28;;;24.38;;
24401;SDS011;12539;48.808;11.292;2022-12-18T04:44:13;53.38;;;23.27;;
24401;SDS011;12539;48.808;11.292;2022-12-18T04:46:39;64.90;;;25.73;;
24401;SDS011;12539;48.808;11.292;2022-12-18T04:49:04;58.90;;;22.58;;
24401;SDS011;12539;48.808;11.292;2022-12-18T04:51:30;56.83;;;23.00;;
24401;SDS011;12539;48.808;11.292;2022-12-18T04:53:56;56.38;;;22.92;;
24401;SDS011;12539;48.808;11.292;2022-12-18T04:56:22;54.38;;;22.88;;
24401;SDS011;12539;48.808;11.292;2022-12-18T04:58:47;51.83;;;22.05;;
24401;SDS011;12539;48.808;11.292;2022-12-18T05:01:14;59.30;;;23.65;;
24401;SDS011;12539;48.808;11.292;2022-12-18T05:03:41;57.22;;;23.13;;
24401;SDS011;12539;48.808;11.292;2022-12-18T05:06:07;50.65;;;20.95;;
24401;SDS011;12539;48.808;11.292;2022-12-18T05:08:33;54.90;;;22.95;;
24401;SDS011;12539;48.808;11.292;2022-12-18T05:11:03;55.03;;;21.35;;
24401;SDS011;12539;48.808;11.292;2022-12-18T05:13:31;49.60;;;19.23;;
24401;SDS011;12539;48.808;11.292;2022-12-18T05:15:57;47.47;;;20.70;;
24401;SDS011;12539;48.808;11.292;2022-12-18T05:18:23;58.05;;;23.15;;
24401;SDS011;12539;48.808;11.292;2022-12-18T05:20:52;54.85;;;22.98;;
24401;SDS011;12539;48.808;11.292;2022-12-18T05:23:19;61.67;;;24.80;;
24401;SDS011;12539;48.808;11.292;2022-12-18T05:26:19;54.25;;;21.08;;
24401;SDS011;12539;48.808;11.292;2022-12-18T05:28:40;55.80;;;22.73;;
24401;SDS011;12539;48.808;11.292;2022-12-18T05:31:05;59.00;;;25.73;;
24401;SDS011;12539;48.808;11.292;2022-12-18T05:33:32;62.80;;;26.15;;
24401;SDS011;12539;48.808;11.292;2022-12-18T05:36:03;55.55;;;22.52;;
24401;SDS011;12539;48.808;11.292;2022-12-18T05:38:31;56.35;;;23.17;;
24401;SDS011;12539;48.808;11.292;2022-12-18T05:40:58;47.97;;;19.50;;
24401;SDS011;12539;48.808;11.292;2022-12-18T05:43:24;52.92;;;21.15;;
24401;SDS011;12539;48.808;11.292;2022-12-18T05:45:51;65.03;;;25.48;;
24401;SDS011;12539;48.808;11.292;2022-12-18T05:48:17;46.28;;;20.45;;
24401;SDS011;12539;48.808;11.292;2022-12-18T05:50:44;51.83;;;20.45;;
24401;SDS011;12539;48.808;11.292;2022-12-18T05:53:11;58.13;;;23.92;;
24401;SDS011;12539;48.808;11.292;2022-12-18T05:55:39;52.83;;;21.63;;
24401;SDS011;12539;48.808;11.292;2022-12-18T05:58:06;55.83;;;21.63;;
24401;SDS011;12539;48.808;11.292;2022-12-18T06:00:34;47.40;;;20.52;;
24401;SDS011;12539;48.808;11.292;2022-12-18T06:03:04;52.88;;;21.67;;
24401;SDS011;12539;48.808;11.292;2022-12-18T06:05:34;59.47;;;23.63;;
24401;SDS011;12539;48.808;11.292;2022-12-18T06:08:04;53.08;;;22.17;;
24401;SDS011;12539;48.808;11.292;2022-12-18T06:10:30;63.70;;;25.17;;
24401;SDS011;12539;48.808;11.292;2022-12-18T06:12:56;62.30;;;25.80;;
24401;SDS011;12539;48.808;11.292;2022-12-18T06:15:21;55.88;;;24.08;;
24401;SDS011;12539;48.808;11.292;2022-12-18T06:17:47;67.47;;;24.83;;
24401;SDS011;12539;48.808;11.292;2022-12-18T06:20:13;70.30;;;26.38;;
24401;SDS011;12539;48.808;11.292;2022-12-18T06:22:38;55.40;;;22.90;;
24401;SDS011;12539;48.808;11.292;2022-12-18T06:25:04;54.20;;;22.08;;
24401;SDS011;12539;48.808;11.292;2022-12-18T06:27:31;76.57;;;26.15;;
24401;SDS011;12539;48.808;11.292;2022-12-18T06:29:58;307.88;;;45.42;;
24401;SDS011;12539;48.808;11.292;2022-12-18T06:32:24;524.75;;;75.05;;
24401;SDS011;12539;48.808;11.292;2022-12-18T06:34:50;88.07;;;27.58;;
24401;SDS011;12539;48.808;11.292;2022-12-18T06:37:16;74.05;;;26.35;;
24401;SDS011;12539;48.808;11.292;2022-12-18T06:39:42;63.10;;;25.05;;
24401;SDS011;12539;48.808;11.292;2022-12-18T06:42:07;58.22;;;21.95;;
24401;SDS011;12539;48.808;11.292;2022-12-18T06:44:33;44.00;;;18.45;;
24401;SDS011;12539;48.808;11.292;2022-12-18T06:46:59;53.05;;;20.95;;
24401;SDS011;12539;48.808;11.292;2022-12-18T06:49:24;56.63;;;22.38;;
24401;SDS011;12539;48.808;11.292;2022-12-18T06:51:50;59.65;;;22.52;;
24401;SDS011;12539;48.808;11.292;2022-12-18T06:54:16;51.00;;;21.23;;
24401;SDS011;12539;48.808;11.292;2022-12-18T06:56:44;50.50;;;21.05;;
24401;SDS011;12539;48.808;11.292;2022-12-18T06:59:10;52.28;;;22.10;;
24401;SDS011;12539;48.808;11.292;2022-12-18T07:01:37;57.03;;;23.00;;
24401;SDS011;12539;48.808;11.292;2022-12-18T07:04:05;48.30;;;19.98;;
24401;SDS011;12539;48.808;11.292;2022-12-18T07:06:30;51.55;;;22.73;;
24401;SDS011;12539;48.808;11.292;2022-12-18T07:08:56;57.33;;;22.45;;
24401;SDS011;12539;48.808;11.292;2022-12-18T07:11:22;49.90;;;20.92;;
24401;SDS011;12539;48.808;11.292;2022-12-18T07:13:48;44.45;;;19.67;;
24401;SDS011;12539;48.808;11.292;2022-12-18T07:16:15;54.50;;;23.35;;
24401;SDS011;12539;48.808;11.292;2022-12-18T07:18:42;47.20;;;20.38;;
24401;SDS011;12539;48.808;11.292;2022-12-18T07:21:09;42.03;;;18.38;;
24401;SDS011;12539;48.808;11.292;2022-12-18T07:23:37;45.45;;;20.55;;
24401;SDS011;12539;48.808;11.292;2022-12-18T07:26:04;44.17;;;18.55;;
24401;SDS011;12539;48.808;11.292;2022-12-18T07:31:10;50.72;;;18.95;;
24401;SDS011;12539;48.808;11.292;2022-12-18T07:33:46;55.00;;;21.90;;
24401;SDS011;12539;48.808;11.292;2022-12-18T07:36:12;74.72;;;25.85;;
24401;SDS011;12539;48.808;11.292;2022-12-18T07:38:39;47.00;;;21.38;;
24401;SDS011;12539;48.808;11.292;2022-12-18T07:41:06;51.78;;;21.42;;
24401;SDS011;12539;48.808;11.292;2022-12-18T07:43:36;61.33;;;24.25;;
24401;SDS011;12539;48.808;11.292;2022-12-18T07:46:02;60.42;;;25.33;;
24401;SDS011;12539;48.808;11.292;2022-12-18T07:48:29;60.05;;;22.23;;
24401;SDS011;12539;48.808;11.292;2022-12-18T07:51:02;59.97;;;24.70;;
24401;SDS011;12539;48.808;11.292;2022-12-18T07:53:29;68.82;;;28.33;;
24401;SDS011;12539;48.808;11.292;2022-12-18T07:55:56;70.70;;;29.48;;
24401;SDS011;12539;48.808;11.292;2022-12-18T07:58:25;63.75;;;27.05;;
24401;SDS011;12539;48.808;11.292;2022-12-18T08:01:17;57.08;;;24.52;;
24401;SDS011;12539;48.808;11.292;2022-12-18T08:03:42;54.90;;;22.88;;
24401;SDS011;12539;48.808;11.292;2022-12-18T08:06:08;54.85;;;23.88;;
24401;SDS011;12539;48.808;11.292;2022-12-18T08:08:34;64.47;;;27.85;;
24401;SDS011;12539;48.808;11.292;2022-12-18T08:11:01;53.63;;;22.85;;
24401;SDS011;12539;48.808;11.292;2022-12-18T08:13:27;64.22;;;27.63;;
24401;SDS011;12539;48.808;11.292;2022-12-18T08:15:57;48.38;;;22.92;;
24401;SDS011;12539;48.808;11.292;2022-12-18T08:18:22;47.67;;;22.90;;
24401;SDS011;12539;48.808;11.292;2022-12-18T08:20:49;53.00;;;22.00;;
24401;SDS011;12539;48.808;11.292;2022-12-18T08:23:17;44.60;;;21.23;;
24401;SDS011;12539;48.808;11.292;2022-12-18T08:25:43;51.70;;;24.50;;
24401;SDS011;12539;48.808;11.292;2022-12-18T08:28:09;65.47;;;28.70;;
24401;SDS011;12539;48.808;11.292;2022-12-18T08:30:35;45.15;;;21.85;;
24401;SDS011;12539;48.808;11.292;2022-12-18T08:33:01;44.28;;;20.67;;
24401;SDS011;12539;48.808;11.292;2022-12-18T08:35:27;51.22;;;23.05;;
24401;SDS011;12539;48.808;11.292;2022-12-18T08:37:53;54.45;;;22.38;;
24401;SDS011;12539;48.808;11.292;2022-12-18T08:40:18;57.35;;;24.05;;
24401;SDS011;12539;48.808;11.292;2022-12-18T08:42:44;59.60;;;25.63;;
24401;SDS011;12539;48.808;11.292;2022-12-18T08:45:28;61.33;;;25.52;;
24401;SDS011;12539;48.808;11.292;2022-12-18T08:47:54;57.42;;;27.10;;
24401;SDS011;12539;48.808;11.292;2022-12-18T08:50:19;52.15;;;22.63;;
24401;SDS011;12539;48.808;11.292;2022-12-18T08:52:45;51.45;;;22.42;;
24401;SDS011;12539;48.808;11.292;2022-12-18T08:55:11;50.70;;;23.25;;
24401;SDS011;12539;48.808;11.292;2022-12-18T08:57:36;46.55;;;22.52;;
24401;SDS011;12539;48.808;11.292;2022-12-18T09:00:03;52.60;;;21.98;;
24401;SDS011;12539;48.808;11.292;2022-12-18T09:02:29;47.88;;;23.15;;
24401;SDS011;12539;48.808;11.292;2022-12-18T09:04:55;52.22;;;24.13;;
24401;SDS011;12539;48.808;11.292;2022-12-18T09:07:20;46.78;;;21.58;;
24401;SDS011;12539;48.808;11.292;2022-12-18T09:09:46;45.95;;;20.98;;
24401;SDS011;12539;48.808;11.292;2022-12-18T09:12:12;53.47;;;25.27;;
24401;SDS011;12539;48.808;11.292;2022-12-18T09:14:37;52.40;;;23.98;;
24401;SDS011;12539;48.808;11.292;2022-12-18T09:17:03;55.85;;;25.52;;
24401;SDS011;12539;48.808;11.292;2022-12-18T09:19:29;50.08;;;24.35;;
24401;SDS011;12539;48.808;11.292;2022-12-18T09:21:54;50.70;;;26.67;;
24401;SDS011;12539;48.808;11.292;2022-12-18T09:24:23;51.35;;;25.42;;
24401;SDS011;12539;48.808;11.292;2022-12-18T09:26:52;49.65;;;23.35;;
24401;SDS011;12539;48.808;11.292;2022-12-18T09:29:18;43.40;;;21.33;;
24401;SDS011;12539;48.808;11.292;2022-12-18T09:31:44;47.03;;;21.55;;
24401;SDS011;12539;48.808;11.292;2022-12-18T09:34:10;49.38;;;21.75;;
24401;SDS011;12539;48.808;11.292;2022-12-18T09:36:36;45.97;;;22.67;;
24401;SDS011;12539;48.808;11.292;2022-12-18T09:39:01;43.92;;;19.55;;
24401;SDS011;12539;48.808;11.292;2022-12-18T09:44:16;44.72;;;22.15;;
24401;SDS011;12539;48.808;11.292;2022-12-18T09:46:45;40.97;;;20.25;;
24401;SDS011;12539;48.808;11.292;2022-12-18T09:49:16;43.40;;;19.73;;
24401;SDS011;12539;48.808;11.292;2022-12-18T09:51:45;53.97;;;23.42;;
24401;SDS011;12539;48.808;11.292;2022-12-18T09:54:22;48.03;;;21.67;;
24401;SDS011;12539;48.808;11.292;2022-12-18T09:57:01;44.47;;;21.25;;
24401;SDS011;12539;48.808;11.292;2022-12-18T09:59:30;47.67;;;23.27;;
24401;SDS011;12539;48.808;11.292;2022-12-18T10:02:20;41.38;;;19.45;;
24401;SDS011;12539;48.808;11.292;2022-12-18T10:04:51;44.30;;;21.15;;
24401;SDS011;12539;48.808;11.292;2022-12-18T10:12:45;38.92;;;19.63;;
24401;SDS011;12539;48.808;11.292;2022-12-18T10:15:20;37.03;;;17.98;;
24401;SDS011;12539;48.808;11.292;2022-12-18T10:17:58;41.28;;;18.48;;
24401;SDS011;12539;48.808;11.292;2022-12-18T10:20:51;34.50;;;17.80;;
24401;SDS011;12539;48.808;11.292;2022-12-18T10:26:06;36.10;;;17.55;;
24401;SDS011;12539;48.808;11.292;2022-12-18T10:28:38;39.20;;;17.88;;
24401;SDS011;12539;48.808;11.292;2022-12-18T10:31:05;41.90;;;18.70;;
24401;SDS011;12539;48.808;11.292;2022-12-18T10:33:42;44.42;;;20.75;;
24401;SDS011;12539;48.808;11.292;2022-12-18T10:36:08;42.85;;;20.40;;
24401;SDS011;12539;48.808;11.292;2022-12-18T10:38:34;46.53;;;21.65;;
24401;SDS011;12539;48.808;11.292;2022-12-18T10:41:04;43.03;;;22.40;;
24401;SDS011;12539;48.808;11.292;2022-12-18T10:43:42;41.15;;;21.50;;
24401;SDS011;12539;48.808;11.292;2022-12-18T10:48:34;40.58;;;21.35;;
24401;SDS011;12539;48.808;11.292;2022-12-18T10:51:04;39.30;;;18.92;;
24401;SDS011;12539;48.808;11.292;2022-12-18T10:53:33;42.08;;;19.98;;
24401;SDS011;12539;48.808;11.292;2022-12-18T10:56:02;42.75;;;21.85;;
24401;SDS011;12539;48.808;11.292;2022-12-18T10:58:33;38.28;;;19.52;;
24401;SDS011;12539;48.808;11.292;2022-12-18T11:01:13;39.35;;;19.92;;
24401;SDS011;12539;48.808;11.292;2022-12-18T11:06:08;38.20;;;19.42;;
24401;SDS011;12539;48.808;11.292;2022-12-18T11:08:34;41.28;;;20.05;;
24401;SDS011;12539;48.808;11.292;2022-12-18T11:11:00;40.45;;;21.23;;
24401;SDS011;12539;48.808;11.292;2022-12-18T11:13:28;42.08;;;21.95;;
24401;SDS011;12539;48.808;11.292;2022-12-18T11:15:56;38.03;;;20.65;;
24401;SDS011;12539;48.808;11.292;2022-12-18T11:18:29;37.28;;;19.20;;
24401;SDS011;12539;48.808;11.292;2022-12-18T11:21:09;41.40;;;21.63;;
24401;SDS011;12539;48.808;11.292;2022-12-18T11:23:37;39.47;;;19.42;;
24401;SDS011;12539;48.808;11.292;2022-12-18T11:26:19;40.72;;;18.88;;
24401;SDS011;12539;48.808;11.292;2022-12-18T11:28:52;35.47;;;18.60;;
24401;SDS011;12539;48.808;11.292;2022-12-18T11:31:32;33.13;;;18.95;;
24401;SDS011;12539;48.808;11.292;2022-12-18T11:36:51;36.80;;;19.50;;
24401;SDS011;12539;48.808;11.292;2022-12-18T11:39:19;32.50;;;18.52;;
24401;SDS011;12539;48.808;11.292;2022-12-18T11:42:04;36.55;;;19.13;;
24401;SDS011;12539;48.808;11.292;2022-12-18T11:47:25;36.55;;;18.63;;
24401;SDS011;12539;48.808;11.292;2022-12-18T11:50:12;37.75;;;19.88;;
24401;SDS011;12539;48.808;11.292;2022-12-18T11:52:45;38.97;;;21.02;;
24401;SDS011;12539;48.808;11.292;2022-12-18T11:55:16;37.47;;;20.58;;
24401;SDS011;12539;48.808;11.292;2022-12-18T12:00:56;39.90;;;19.40;;
24401;SDS011;12539;48.808;11.292;2022-12-18T12:09:21;35.22;;;18.00;;
24401;SDS011;12539;48.808;11.292;2022-12-18T12:20:53;40.80;;;20.02;;
24401;SDS011;12539;48.808;11.292;2022-12-18T12:23:22;41.92;;;21.38;;
24401;SDS011;12539;48.808;11.292;2022-12-18T12:38:57;35.42;;;20.13;;
24401;SDS011;12539;48.808;11.292;2022-12-18T12:41:27;41.90;;;22.35;;
24401;SDS011;12539;48.808;11.292;2022-12-18T12:44:17;34.58;;;18.88;;
24401;SDS011;12539;48.808;11.292;2022-12-18T12:46:48;39.05;;;20.60;;
24401;SDS011;12539;48.808;11.292;2022-12-18T12:49:17;44.25;;;22.33;;
24401;SDS011;12539;48.808;11.292;2022-12-18T12:51:47;33.58;;;19.38;;
24401;SDS011;12539;48.808;11.292;2022-12-18T12:54:23;37.70;;;20.77;;
24401;SDS011;12539;48.808;11.292;2022-12-18T12:56:53;43.47;;;21.10;;
24401;SDS011;12539;48.808;11.292;2022-12-18T13:07:19;41.35;;;20.60;;
24401;SDS011;12539;48.808;11.292;2022-12-18T13:20:37;49.20;;;21.63;;
24401;SDS011;12539;48.808;11.292;2022-12-18T13:23:36;46.60;;;21.35;;
24401;SDS011;12539;48.808;11.292;2022-12-18T13:36:44;43.75;;;23.30;;
24401;SDS011;12539;48.808;11.292;2022-12-18T13:41:40;53.08;;;24.65;;
24401;SDS011;12539;48.808;11.292;2022-12-18T13:44:17;49.22;;;23.38;;
24401;SDS011;12539;48.808;11.292;2022-12-18T13:47:05;50.38;;;22.92;;
24401;SDS011;12539;48.808;11.292;2022-12-18T13:49:50;48.85;;;24.02;;
24401;SDS011;12539;48.808;11.292;2022-12-18T13:52:20;45.95;;;23.77;;
24401;SDS011;12539;48.808;11.292;2022-12-18T13:54:53;44.63;;;22.38;;
24401;SDS011;12539;48.808;11.292;2022-12-18T13:59:58;50.20;;;21.98;;
24401;SDS011;12539;48.808;11.292;2022-12-18T14:02:37;42.63;;;22.77;;
24401;SDS011;12539;48.808;11.292;2022-12-18T14:05:03;42.58;;;21.35;;
24401;SDS011;12539;48.808;11.292;2022-12-18T14:07:29;48.78;;;22.98;;
24401;SDS011;12539;48.808;11.292;2022-12-18T14:09:57;46.33;;;22.33;;
24401;SDS011;12539;48.808;11.292;2022-12-18T14:12:25;45.22;;;22.20;;
24401;SDS011;12539;48.808;11.292;2022-12-18T14:17:55;41.67;;;19.17;;
24401;SDS011;12539;48.808;11.292;2022-12-18T14:20:22;43.83;;;21.45;;
24401;SDS011;12539;48.808;11.292;2022-12-18T14:22:50;41.42;;;19.73;;
24401;SDS011;12539;48.808;11.292;2022-12-18T14:27:50;50.25;;;21.85;;
24401;SDS011;12539;48.808;11.292;2022-12-18T14:30:23;51.83;;;22.58;;
24401;SDS011;12539;48.808;11.292;2022-12-18T14:35:34;52.63;;;25.23;;
24401;SDS011;12539;48.808;11.292;2022-12-18T14:40:53;53.55;;;24.40;;
24401;SDS011;12539;48.808;11.292;2022-12-18T14:43:21;50.65;;;23.38;;
24401;SDS011;12539;48.808;11.292;2022-12-18T14:45:46;45.38;;;22.25;;
24401;SDS011;12539;48.808;11.292;2022-12-18T14:48:20;43.97;;;21.75;;
24401;SDS011;12539;48.808;11.292;2022-12-18T14:53:45;39.05;;;19.10;;
24401;SDS011;12539;48.808;11.292;2022-12-18T14:56:17;38.13;;;18.77;;
24401;SDS011;12539;48.808;11.292;2022-12-18T14:58:50;45.08;;;19.67;;
24401;SDS011;12539;48.808;11.292;2022-12-18T15:01:23;38.10;;;20.65;;
24401;SDS011;12539;48.808;11.292;2022-12-18T15:06:17;43.03;;;18.92;;
24401;SDS011;12539;48.808;11.292;2022-12-18T15:09:06;43.10;;;20.67;;
24401;SDS011;12539;48.808;11.292;2022-12-18T15:11:54;44.42;;;22.38;;
24401;SDS011;12539;48.808;11.292;2022-12-18T15:14:35;42.47;;;21.77;;
24401;SDS011;12539;48.808;11.292;2022-12-18T15:17:16;47.45;;;21.85;;
24401;SDS011;12539;48.808;11.292;2022-12-18T15:19:47;40.25;;;20.48;;
24401;SDS011;12539;48.808;11.292;2022-12-18T15:22:29;43.33;;;20.67;;
24401;SDS011;12539;48.808;11.292;2022-12-18T15:24:58;45.15;;;21.17;;
24401;SDS011;12539;48.808;11.292;2022-12-18T15:32:37;49.08;;;23.25;;
24401;SDS011;12539;48.808;11.292;2022-12-18T15:37:40;40.92;;;21.73;;
24401;SDS011;12539;48.808;11.292;2022-12-18T15:40:08;44.80;;;24.27;;
24401;SDS011;12539;48.808;11.292;2022-12-18T15:42:41;44.20;;;21.45;;
24401;SDS011;12539;48.808;11.292;2022-12-18T15:45:25;46.30;;;23.15;;
24401;SDS011;12539;48.808;11.292;2022-12-18T15:47:51;39.15;;;21.30;;
24401;SDS011;12539;48.808;11.292;2022-12-18T15:50:17;39.38;;;21.67;;
24401;SDS011;12539;48.808;11.292;2022-12-18T15:52:45;42.70;;;21.00;;
24401;SDS011;12539;48.808;11.292;2022-12-18T15:55:16;41.50;;;21.60;;
24401;SDS011;12539;48.808;11.292;2022-12-18T15:58:03;38.55;;;19.17;;
24401;SDS011;12539;48.808;11.292;2022-12-18T16:00:33;43.05;;;21.08;;
24401;SDS011;12539;48.808;11.292;2022-12-18T16:03:00;46.38;;;21.38;;
24401;SDS011;12539;48.808;11.292;2022-12-18T16:05:27;50.33;;;25.48;;
24401;SDS011;12539;48.808;11.292;2022-12-18T16:07:53;44.72;;;23.67;;
24401;SDS011;12539;48.808;11.292;2022-12-18T16:10:19;39.72;;;20.65;;
24401;SDS011;12539;48.808;11.292;2022-12-18T16:12:45;43.00;;;21.15;;
24401;SDS011;12539;48.808;11.292;2022-12-18T16:15:14;45.28;;;22.63;;
24401;SDS011;12539;48.808;11.292;2022-12-18T16:17:41;37.42;;;19.50;;
24401;SDS011;12539;48.808;11.292;2022-12-18T16:20:14;37.22;;;19.30;;
24401;SDS011;12539;48.808;11.292;2022-12-18T16:22:42;36.67;;;19.65;;
24401;SDS011;12539;48.808;11.292;2022-12-18T16:25:20;42.28;;;21.77;;
24401;SDS011;12539;48.808;11.292;2022-12-18T16:27:51;34.97;;;18.83;;
24401;SDS011;12539;48.808;11.292;2022-12-18T16:30:22;33.92;;;19.33;;
24401;SDS011;12539;48.808;11.292;2022-12-18T16:32:53;44.20;;;21.77;;
24401;SDS011;12539;48.808;11.292;2022-12-18T16:35:19;40.83;;;20.40;;
24401;SDS011;12539;48.808;11.292;2022-12-18T16:37:45;44.92;;;21.88;;
24401;SDS011;12539;48.808;11.292;2022-12-18T16:40:12;34.72;;;19.52;;
24401;SDS011;12539;48.808;11.292;2022-12-18T16:42:40;37.80;;;20.77;;
24401;SDS011;12539;48.808;11.292;2022-12-18T16:45:08;38.65;;;20.33;;